Time;durP1;ratioP1;P1;durP2;ratioP2;P2;SDS_P1;SDS_P2;PMS_P1;PMS_P2;Temp;Humidity;BMP_temperature;BMP_pressure;BME280_temperature;BME280_humidity;BME280_pressure;Samples;Min_cycle;Max_cycle;Signal;HPM_P1;HPM_P2
2023/12/27 00:01:37;;;;;;;136.82;60.60;;;17.30;81.20;;;;;;5038667;28;20073;-40
2023/12/27 00:04:03;;;;;;;133.32;59.85;;;17.30;81.30;;;;;;5042199;28;20153;-40
2023/12/27 00:06:29;;;;;;;133.27;60.00;;;17.30;81.40;;;;;;5040918;28;20097;-40
2023/12/27 00:08:54;;;;;;;134.07;59.53;;;17.20;80.70;;;;;;5039781;28;20049;-39
2023/12/27 00:11:20;;;;;;;138.75;60.95;;;17.20;80.50;;;;;;5039272;28;20463;-40
2023/12/27 00:13:46;;;;;;;134.90;59.60;;;17.20;80.50;;;;;;5034940;28;20037;-43
2023/12/27 00:16:11;;;;;;;136.05;59.83;;;17.20;80.50;;;;;;5033030;28;20038;-40
2023/12/27 00:18:37;;;;;;;140.90;60.55;;;17.20;80.40;;;;;;5033812;28;20049;-42
2023/12/27 00:21:04;;;;;;;135.50;59.65;;;17.20;80.70;;;;;;5038265;28;20044;-42
2023/12/27 00:23:29;;;;;;;137.95;60.42;;;17.10;80.00;;;;;;5034088;28;20049;-42
2023/12/27 00:25:56;;;;;;;135.55;60.03;;;17.20;80.10;;;;;;5030935;28;20041;-42
2023/12/27 00:28:22;;;;;;;136.93;59.80;;;17.10;80.00;;;;;;5032838;28;20092;-40
2023/12/27 00:30:49;;;;;;;134.18;59.92;;;17.10;79.80;;;;;;5038302;28;20064;-42
2023/12/27 00:33:15;;;;;;;136.75;59.70;;;17.10;79.80;;;;;;5039381;28;20101;-41
2023/12/27 00:35:41;;;;;;;140.70;59.22;;;17.10;79.60;;;;;;5035672;28;20046;-42
2023/12/27 00:38:06;;;;;;;137.90;60.38;;;17.10;79.40;;;;;;5036671;28;20037;-40
2023/12/27 00:40:32;;;;;;;135.85;59.55;;;17.10;79.20;;;;;;5032614;28;20049;-41
2023/12/27 00:42:58;;;;;;;135.43;59.00;;;17.00;79.30;;;;;;5037811;28;20267;-42
2023/12/27 00:45:24;;;;;;;133.73;59.42;;;17.00;79.10;;;;;;5041230;28;20470;-41
2023/12/27 00:47:49;;;;;;;136.88;60.13;;;17.00;78.80;;;;;;5036957;28;20508;-40
2023/12/27 00:50:15;;;;;;;133.65;59.30;;;17.00;78.80;;;;;;5037455;28;20064;-42
2023/12/27 00:52:41;;;;;;;134.00;59.03;;;17.10;78.60;;;;;;5042800;28;20034;-44
2023/12/27 00:55:07;;;;;;;133.15;58.60;;;17.10;78.60;;;;;;5041280;28;20108;-43
2023/12/27 00:57:32;;;;;;;131.73;59.08;;;17.00;78.30;;;;;;5040377;28;20037;-41
2023/12/27 00:59:58;;;;;;;131.85;58.97;;;17.00;78.20;;;;;;5040036;28;20452;-46
2023/12/27 01:02:23;;;;;;;133.02;59.30;;;17.00;78.10;;;;;;5037950;28;20507;-43
2023/12/27 01:04:49;;;;;;;132.80;58.83;;;17.00;78.10;;;;;;5044202;28;20549;-41
2023/12/27 01:07:15;;;;;;;130.85;58.70;;;17.00;77.90;;;;;;5041855;28;20607;-40
2023/12/27 01:09:40;;;;;;;132.80;59.45;;;17.00;77.80;;;;;;5035703;28;20072;-40
2023/12/27 01:12:06;;;;;;;131.52;58.88;;;17.00;77.80;;;;;;5038460;28;20033;-42
2023/12/27 01:14:31;;;;;;;132.10;59.38;;;17.00;77.70;;;;;;5038063;28;20094;-42
2023/12/27 01:16:57;;;;;;;132.18;59.15;;;16.90;77.50;;;;;;5040751;28;20151;-44
2023/12/27 01:19:23;;;;;;;131.80;58.63;;;16.90;77.50;;;;;;5036941;28;20080;-39
2023/12/27 01:21:48;;;;;;;132.20;58.97;;;16.90;77.40;;;;;;5044913;28;20522;-41
2023/12/27 01:24:14;;;;;;;134.45;59.22;;;16.90;77.20;;;;;;5043836;28;20068;-45
2023/12/27 01:26:40;;;;;;;132.30;58.63;;;16.90;77.20;;;;;;5040711;28;20076;-43
2023/12/27 01:29:05;;;;;;;129.80;58.63;;;16.90;77.20;;;;;;5039502;28;20466;-44
2023/12/27 01:31:31;;;;;;;135.15;59.10;;;16.90;77.00;;;;;;5034396;28;20085;-41
2023/12/27 01:33:57;;;;;;;133.95;59.80;;;16.90;76.90;;;;;;5042864;28;20029;-41
2023/12/27 01:36:23;;;;;;;133.88;59.45;;;16.90;76.80;;;;;;5038295;28;20414;-43
2023/12/27 01:38:48;;;;;;;132.55;59.15;;;16.80;76.80;;;;;;5042853;28;20077;-40
2023/12/27 01:41:14;;;;;;;133.18;59.60;;;16.80;76.70;;;;;;5035978;28;20033;-43
2023/12/27 01:43:40;;;;;;;131.10;58.65;;;16.80;76.60;;;;;;5039671;28;20519;-42
2023/12/27 01:46:07;;;;;;;132.55;58.65;;;16.80;76.60;;;;;;5040644;28;20554;-41
2023/12/27 01:48:33;;;;;;;135.27;58.88;;;16.80;76.50;;;;;;5038187;28;20070;-44
2023/12/27 01:51:01;;;;;;;132.10;59.33;;;16.80;76.50;;;;;;5035838;28;20120;-41
2023/12/27 01:53:27;;;;;;;131.60;59.08;;;16.80;76.40;;;;;;5035038;28;20044;-43
2023/12/27 01:55:54;;;;;;;131.50;58.53;;;16.80;76.20;;;;;;5035051;28;20041;-40
2023/12/27 01:58:21;;;;;;;132.38;59.03;;;16.80;76.30;;;;;;5039386;28;20041;-44
2023/12/27 02:00:48;;;;;;;131.88;59.55;;;16.80;76.20;;;;;;5037169;28;20159;-42
2023/12/27 02:03:14;;;;;;;133.93;59.83;;;16.80;76.20;;;;;;5035397;28;20089;-43
2023/12/27 02:05:40;;;;;;;132.50;58.97;;;16.70;76.20;;;;;;5036942;28;20161;-43
2023/12/27 02:08:08;;;;;;;134.63;59.85;;;16.70;76.10;;;;;;5034842;28;20687;-42
2023/12/27 02:10:34;;;;;;;133.27;59.60;;;16.70;76.10;;;;;;5040121;28;20121;-41
2023/12/27 02:13:07;;;;;;;133.43;59.60;;;16.70;76.10;;;;;;5038446;28;20033;-45
2023/12/27 02:15:33;;;;;;;132.48;59.05;;;16.70;76.10;;;;;;5037461;28;20052;-42
2023/12/27 02:18:01;;;;;;;135.95;59.63;;;16.70;76.00;;;;;;5039526;28;20095;-48
2023/12/27 02:20:27;;;;;;;133.07;59.03;;;16.70;76.10;;;;;;5039246;28;20041;-44
2023/12/27 02:22:55;;;;;;;132.13;58.78;;;16.70;76.00;;;;;;5037231;28;20136;-40
2023/12/27 02:25:21;;;;;;;135.18;59.42;;;16.70;76.00;;;;;;5037332;28;20053;-42
2023/12/27 02:27:47;;;;;;;134.88;59.65;;;16.70;76.10;;;;;;5040030;28;20041;-42
2023/12/27 02:30:20;;;;;;;131.68;59.17;;;16.70;76.00;;;;;;5037071;28;20049;-44
2023/12/27 02:32:47;;;;;;;131.05;59.35;;;16.70;76.00;;;;;;5037900;28;20144;-44
2023/12/27 02:35:12;;;;;;;130.57;58.45;;;16.70;76.00;;;;;;5033994;28;20661;-41
2023/12/27 02:37:38;;;;;;;132.68;59.17;;;16.70;76.00;;;;;;5038463;28;20042;-39
2023/12/27 02:40:05;;;;;;;132.10;59.50;;;16.70;76.00;;;;;;5036667;28;20490;-43
2023/12/27 02:42:30;;;;;;;132.55;58.75;;;16.60;76.00;;;;;;5036810;28;20033;-44
2023/12/27 02:44:56;;;;;;;131.95;59.22;;;16.60;76.60;;;;;;5037720;28;20392;-41
2023/12/27 02:47:21;;;;;;;131.95;59.17;;;16.60;76.00;;;;;;5040435;28;20053;-42
2023/12/27 02:49:47;;;;;;;131.23;58.15;;;16.60;76.00;;;;;;5040205;28;20380;-45
2023/12/27 02:52:13;;;;;;;131.48;59.05;;;16.60;75.90;;;;;;5037229;28;20487;-44
2023/12/27 02:54:38;;;;;;;132.88;59.33;;;16.60;76.00;;;;;;5039048;28;20329;-40
2023/12/27 02:57:04;;;;;;;129.75;58.65;;;16.60;76.00;;;;;;5035801;28;20048;-41
2023/12/27 02:59:30;;;;;;;131.35;58.95;;;16.60;76.00;;;;;;5038560;28;20116;-41
2023/12/27 03:01:55;;;;;;;131.15;59.38;;;16.60;75.90;;;;;;5034374;28;20044;-39
2023/12/27 03:04:21;;;;;;;131.18;59.40;;;16.60;75.90;;;;;;5040648;28;20599;-46
2023/12/27 03:06:47;;;;;;;131.60;59.28;;;16.60;75.90;;;;;;5043334;28;20053;-46
2023/12/27 03:09:12;;;;;;;131.20;58.60;;;16.60;75.80;;;;;;5042458;28;20042;-43
2023/12/27 03:11:38;;;;;;;130.13;58.75;;;16.60;75.90;;;;;;5043608;28;20112;-41
2023/12/27 03:14:04;;;;;;;130.63;59.35;;;16.60;75.90;;;;;;5032376;28;20420;-41
2023/12/27 03:16:29;;;;;;;131.20;58.63;;;16.60;75.90;;;;;;5041291;28;20578;-45
2023/12/27 03:18:56;;;;;;;130.95;58.42;;;16.60;75.90;;;;;;5044662;28;20037;-41
2023/12/27 03:21:21;;;;;;;129.40;58.22;;;16.60;76.00;;;;;;5035919;28;20037;-40
2023/12/27 03:23:47;;;;;;;130.70;58.80;;;16.60;75.90;;;;;;5041773;28;20040;-44
2023/12/27 03:26:13;;;;;;;131.00;58.53;;;16.60;75.90;;;;;;5039388;28;20037;-41
2023/12/27 03:28:39;;;;;;;130.73;58.28;;;16.50;75.80;;;;;;5043267;28;20081;-40
2023/12/27 03:31:04;;;;;;;130.48;58.88;;;16.50;75.90;;;;;;5043724;28;20407;-41
2023/12/27 03:33:30;;;;;;;130.35;58.60;;;16.60;76.00;;;;;;5040294;28;20523;-40
2023/12/27 03:35:56;;;;;;;129.35;58.03;;;16.50;75.90;;;;;;5040150;28;20792;-46
2023/12/27 03:38:21;;;;;;;131.05;58.30;;;16.50;75.90;;;;;;5040474;28;20037;-41
2023/12/27 03:40:47;;;;;;;130.30;58.28;;;16.50;75.90;;;;;;5040737;28;20508;-42
2023/12/27 03:43:12;;;;;;;130.65;58.97;;;16.50;75.80;;;;;;5035889;28;20038;-43
2023/12/27 03:45:39;;;;;;;129.10;57.65;;;16.50;75.80;;;;;;5039036;28;20050;-41
2023/12/27 03:48:05;;;;;;;127.50;57.83;;;16.50;75.90;;;;;;5042035;28;20172;-42
2023/12/27 03:50:30;;;;;;;129.00;57.67;;;16.50;76.70;;;;;;5041476;28;20049;-40
2023/12/27 03:52:56;;;;;;;128.52;57.65;;;16.50;75.90;;;;;;5038787;28;20516;-41
2023/12/27 03:55:25;;;;;;;129.55;58.15;;;16.50;75.80;;;;;;5037557;28;20475;-43
2023/12/27 03:57:51;;;;;;;128.02;57.75;;;16.50;75.70;;;;;;5041606;28;20057;-42
2023/12/27 04:00:17;;;;;;;126.80;56.97;;;16.50;76.20;;;;;;5044721;28;20064;-40
2023/12/27 04:02:43;;;;;;;128.82;57.63;;;16.50;76.50;;;;;;5043030;28;20128;-38
2023/12/27 04:05:09;;;;;;;128.48;57.78;;;16.60;76.80;;;;;;5037507;28;20140;-38
2023/12/27 04:07:35;;;;;;;129.55;57.92;;;16.50;76.90;;;;;;5041378;28;20568;-38
2023/12/27 04:10:01;;;;;;;128.73;57.90;;;16.50;77.00;;;;;;5041893;28;20085;-43
2023/12/27 04:12:26;;;;;;;129.13;57.97;;;16.50;77.10;;;;;;5037478;28;20029;-38
2023/12/27 04:14:52;;;;;;;130.07;58.28;;;16.50;77.10;;;;;;5038367;28;20040;-39
2023/12/27 04:17:18;;;;;;;129.43;57.95;;;16.50;77.10;;;;;;5044467;28;20045;-38
2023/12/27 04:19:43;;;;;;;129.10;58.80;;;16.60;77.10;;;;;;5039116;28;20043;-38
2023/12/27 04:22:09;;;;;;;129.05;57.72;;;16.60;77.00;;;;;;5042778;28;20037;-40
2023/12/27 04:24:35;;;;;;;126.82;57.45;;;16.60;76.90;;;;;;5035946;28;20080;-41
2023/12/27 04:27:01;;;;;;;129.18;58.25;;;16.50;76.90;;;;;;5037122;28;20030;-39
2023/12/27 04:29:27;;;;;;;128.05;57.28;;;16.50;76.80;;;;;;5041122;28;20119;-38
2023/12/27 04:31:52;;;;;;;127.97;57.63;;;16.60;76.80;;;;;;5037864;28;20064;-39
2023/12/27 04:34:18;;;;;;;128.02;58.17;;;16.60;76.80;;;;;;5037377;28;20046;-38
2023/12/27 04:36:44;;;;;;;129.02;57.95;;;16.60;76.80;;;;;;5039428;28;20033;-38
2023/12/27 04:39:10;;;;;;;128.55;57.45;;;16.50;76.70;;;;;;5040943;28;20104;-38
2023/12/27 04:41:35;;;;;;;127.97;57.38;;;16.50;76.70;;;;;;5037940;28;20041;-39
2023/12/27 04:44:01;;;;;;;128.27;57.80;;;16.60;76.70;;;;;;5038129;28;20124;-39
2023/12/27 04:46:27;;;;;;;128.40;58.03;;;16.60;76.60;;;;;;5040371;28;20476;-38
2023/12/27 04:48:52;;;;;;;128.75;57.90;;;16.60;76.50;;;;;;5042891;28;20049;-39
2023/12/27 04:51:18;;;;;;;129.18;58.22;;;16.60;76.50;;;;;;5037278;28;20038;-38
2023/12/27 04:53:44;;;;;;;127.82;57.55;;;16.60;77.20;;;;;;5040158;28;20042;-38
2023/12/27 04:56:10;;;;;;;127.72;57.13;;;16.50;76.40;;;;;;5036572;28;20117;-38
2023/12/27 04:58:36;;;;;;;127.07;57.33;;;16.60;76.40;;;;;;5041602;28;20172;-39
2023/12/27 05:01:09;;;;;;;128.15;58.28;;;16.60;76.50;;;;;;5039066;28;20507;-39
2023/12/27 05:03:37;;;;;;;128.50;57.95;;;16.50;76.40;;;;;;5037255;28;20043;-40
2023/12/27 05:06:08;;;;;;;127.88;57.58;;;16.50;76.40;;;;;;5042535;28;20056;-38
2023/12/27 05:08:34;;;;;;;127.35;56.78;;;16.50;76.30;;;;;;5038217;28;20046;-38
2023/12/27 05:11:00;;;;;;;127.75;57.83;;;16.60;76.30;;;;;;5034686;28;20061;-49
2023/12/27 05:13:26;;;;;;;129.98;58.95;;;16.50;76.20;;;;;;5037545;28;20033;-49
2023/12/27 05:15:52;;;;;;;128.23;58.00;;;16.50;76.40;;;;;;5035855;28;20048;-49
2023/12/27 05:18:18;;;;;;;128.40;57.65;;;16.50;76.20;;;;;;5039561;28;20033;-48
2023/12/27 05:20:43;;;;;;;127.15;57.20;;;16.50;76.30;;;;;;5045724;28;20048;-48
2023/12/27 05:23:09;;;;;;;127.70;57.67;;;16.50;76.40;;;;;;5042241;28;20825;-48
2023/12/27 05:25:35;;;;;;;127.88;57.72;;;16.50;76.30;;;;;;5034196;28;20100;-48
2023/12/27 05:28:01;;;;;;;129.35;57.53;;;16.50;76.20;;;;;;5036824;28;20029;-48
2023/12/27 05:30:27;;;;;;;127.82;57.55;;;16.50;76.30;;;;;;5039383;28;20064;-49
2023/12/27 05:32:52;;;;;;;126.97;57.22;;;16.50;76.30;;;;;;5034260;28;20042;-48
2023/12/27 05:35:18;;;;;;;127.63;57.53;;;16.50;76.30;;;;;;5032116;28;20045;-48
2023/12/27 05:37:44;;;;;;;126.20;57.28;;;16.50;76.40;;;;;;5036283;28;20052;-49
2023/12/27 05:40:10;;;;;;;127.57;57.65;;;16.50;76.30;;;;;;5042874;28;20046;-48
2023/12/27 05:42:35;;;;;;;127.00;57.63;;;16.50;76.20;;;;;;5036888;28;20042;-48
2023/12/27 05:45:01;;;;;;;129.38;57.75;;;16.50;76.20;;;;;;5038259;28;20038;-49
2023/12/27 05:47:26;;;;;;;125.68;56.70;;;16.50;76.20;;;;;;5036828;28;21286;-48
2023/12/27 05:49:52;;;;;;;127.68;56.97;;;16.50;76.20;;;;;;5038986;28;20372;-48
2023/12/27 05:52:18;;;;;;;127.88;57.28;;;16.50;76.20;;;;;;5034082;28;20563;-48
2023/12/27 05:54:44;;;;;;;128.75;57.60;;;16.50;76.10;;;;;;5032998;28;20065;-48
2023/12/27 05:57:09;;;;;;;127.10;57.83;;;16.50;76.10;;;;;;5034566;28;20512;-48
2023/12/27 05:59:35;;;;;;;127.45;56.80;;;16.50;76.20;;;;;;5037366;28;20521;-48
2023/12/27 06:02:00;;;;;;;128.50;57.45;;;16.50;76.00;;;;;;5036409;28;20040;-48
2023/12/27 06:04:27;;;;;;;127.57;57.13;;;16.40;76.70;;;;;;5036666;28;20041;-48
2023/12/27 06:06:53;;;;;;;128.15;57.38;;;16.50;76.10;;;;;;5040055;28;20124;-48
2023/12/27 06:09:20;;;;;;;126.82;57.00;;;16.40;76.00;;;;;;5033373;28;20141;-48
2023/12/27 06:11:46;;;;;;;126.65;57.20;;;16.40;76.10;;;;;;5033919;28;20113;-48
2023/12/27 06:14:12;;;;;;;126.90;57.15;;;16.40;76.00;;;;;;5037789;28;20033;-49
2023/12/27 06:16:38;;;;;;;127.75;57.47;;;16.40;76.00;;;;;;5037873;28;20037;-48
2023/12/27 06:19:04;;;;;;;127.07;57.42;;;16.40;76.00;;;;;;5034838;28;20049;-48
2023/12/27 06:21:29;;;;;;;126.38;56.90;;;16.40;75.80;;;;;;5036804;28;20038;-41
2023/12/27 06:23:56;;;;;;;127.75;57.20;;;16.40;75.90;;;;;;5037005;28;20037;-40
2023/12/27 06:26:22;;;;;;;127.43;56.85;;;16.40;75.90;;;;;;5045934;28;20060;-39
2023/12/27 06:28:48;;;;;;;127.05;57.03;;;16.40;75.80;;;;;;5035250;28;20084;-41
2023/12/27 06:31:13;;;;;;;125.88;56.47;;;16.40;75.90;;;;;;5029220;28;20041;-42
2023/12/27 06:33:39;;;;;;;126.97;56.92;;;16.40;75.80;;;;;;5032805;28;20035;-43
2023/12/27 06:36:06;;;;;;;126.55;56.90;;;16.40;75.70;;;;;;5035450;28;20548;-42
2023/12/27 06:38:32;;;;;;;126.38;57.47;;;16.40;75.80;;;;;;5037804;28;20037;-44
2023/12/27 06:40:58;;;;;;;127.25;57.17;;;16.40;75.70;;;;;;5033137;28;20040;-41
2023/12/27 06:43:23;;;;;;;126.32;57.10;;;16.40;75.70;;;;;;5036412;28;20042;-41
2023/12/27 06:45:49;;;;;;;126.63;56.90;;;16.40;75.60;;;;;;5035222;28;20037;-43
2023/12/27 06:48:15;;;;;;;125.75;57.25;;;16.30;75.60;;;;;;5034522;28;20149;-40
2023/12/27 06:50:44;;;;;;;125.95;56.53;;;16.40;75.70;;;;;;5039673;28;20170;-39
2023/12/27 06:53:10;;;;;;;126.75;57.00;;;16.30;75.60;;;;;;5033112;28;20068;-38
2023/12/27 06:55:36;;;;;;;125.68;56.70;;;16.30;75.70;;;;;;5037212;28;20924;-38
2023/12/27 06:58:01;;;;;;;125.93;56.63;;;16.30;75.60;;;;;;5035416;28;20037;-42
2023/12/27 07:00:30;;;;;;;126.43;56.65;;;16.30;75.50;;;;;;5028364;28;20041;-39
2023/12/27 07:02:56;;;;;;;126.95;57.13;;;16.30;75.50;;;;;;5033809;28;20034;-39
2023/12/27 07:05:22;;;;;;;127.55;56.83;;;16.30;75.60;;;;;;5034342;28;20053;-46
2023/12/27 07:07:47;;;;;;;127.13;56.95;;;16.30;75.50;;;;;;5035276;28;20041;-44
2023/12/27 07:10:19;;;;;;;125.43;56.25;;;16.30;75.50;;;;;;5034578;28;20042;-40
2023/12/27 07:12:45;;;;;;;125.97;56.83;;;16.30;75.40;;;;;;5028827;28;21010;-41
2023/12/27 07:15:11;;;;;;;125.80;56.65;;;16.30;75.40;;;;;;5033913;28;20156;-43
2023/12/27 07:17:37;;;;;;;125.80;56.78;;;16.30;75.40;;;;;;5032368;28;21297;-40
2023/12/27 07:20:03;;;;;;;125.80;56.30;;;16.30;75.30;;;;;;5037609;28;20108;-43
2023/12/27 07:22:29;;;;;;;126.85;57.35;;;16.30;75.40;;;;;;5036411;28;20030;-39
2023/12/27 07:24:54;;;;;;;127.32;57.10;;;16.30;75.40;;;;;;5034299;28;20402;-41
2023/12/27 07:27:20;;;;;;;125.95;56.83;;;16.20;75.20;;;;;;5023399;28;20196;-41
2023/12/27 07:29:46;;;;;;;128.07;57.35;;;16.20;75.20;;;;;;5029316;28;20045;-42
2023/12/27 07:32:11;;;;;;;127.03;57.35;;;16.20;75.20;;;;;;5033743;28;20676;-41
2023/12/27 07:34:37;;;;;;;128.27;57.05;;;16.20;75.30;;;;;;5029939;28;20372;-39
2023/12/27 07:37:03;;;;;;;135.80;60.97;;;16.20;75.30;;;;;;5030992;28;20128;-41
2023/12/27 07:39:29;;;;;;;134.45;63.33;;;16.20;75.90;;;;;;5033237;28;20046;-39
2023/12/27 07:41:55;;;;;;;132.23;62.35;;;16.20;76.70;;;;;;5034009;28;20846;-43
2023/12/27 07:44:21;;;;;;;134.85;61.08;;;16.30;77.00;;;;;;5036569;28;20037;-39
2023/12/27 07:46:46;;;;;;;131.18;60.72;;;16.30;76.80;;;;;;5034751;28;20042;-43
2023/12/27 07:49:12;;;;;;;133.10;62.00;;;16.40;76.80;;;;;;5036762;28;20048;-40
2023/12/27 07:51:38;;;;;;;135.25;61.75;;;16.40;76.70;;;;;;5032074;28;20112;-41
2023/12/27 07:54:03;;;;;;;133.27;61.33;;;16.40;76.60;;;;;;5033490;28;20128;-41
2023/12/27 07:56:29;;;;;;;133.02;61.25;;;16.50;76.60;;;;;;5033198;28;20137;-42
2023/12/27 07:58:55;;;;;;;131.90;61.70;;;16.50;76.40;;;;;;5032811;28;20415;-40
2023/12/27 08:01:21;;;;;;;129.20;60.00;;;16.50;76.40;;;;;;5032621;28;20068;-39
2023/12/27 08:03:47;;;;;;;137.93;67.68;;;16.50;76.20;;;;;;5034493;28;21196;-41
2023/12/27 08:06:13;;;;;;;139.20;69.57;;;16.50;76.20;;;;;;5040044;28;20041;-43
2023/12/27 08:08:39;;;;;;;141.98;68.10;;;16.60;76.30;;;;;;5037025;28;20136;-42
2023/12/27 08:11:05;;;;;;;140.65;66.55;;;16.50;76.10;;;;;;5036683;28;20049;-42
2023/12/27 08:13:35;;;;;;;134.60;65.00;;;16.60;76.20;;;;;;5042050;28;20034;-40
2023/12/27 08:16:01;;;;;;;136.87;65.13;;;16.60;76.30;;;;;;5040797;28;20104;-42
2023/12/27 08:18:26;;;;;;;136.95;65.10;;;16.60;76.10;;;;;;5043701;28;20115;-43
2023/12/27 08:20:53;;;;;;;137.38;64.38;;;16.70;75.90;;;;;;5039003;28;20423;-44
2023/12/27 08:23:18;;;;;;;135.05;63.72;;;16.70;75.80;;;;;;5041175;28;20044;-42
2023/12/27 08:25:45;;;;;;;132.63;62.92;;;16.70;75.60;;;;;;5042150;28;20033;-42
2023/12/27 08:28:10;;;;;;;135.80;62.35;;;16.70;75.50;;;;;;5043379;28;20041;-43
2023/12/27 08:30:37;;;;;;;134.85;63.63;;;16.80;75.40;;;;;;5041455;28;20590;-42
2023/12/27 08:33:07;;;;;;;134.02;62.88;;;16.80;75.40;;;;;;5036650;28;20034;-40
2023/12/27 08:35:36;;;;;;;133.52;61.42;;;16.80;75.30;;;;;;5043351;28;20494;-44
2023/12/27 08:38:02;;;;;;;131.18;61.88;;;16.80;75.30;;;;;;5036159;28;20211;-45
2023/12/27 08:40:28;;;;;;;132.88;61.85;;;16.80;75.30;;;;;;5042331;28;20096;-40
2023/12/27 08:42:55;;;;;;;133.20;61.75;;;16.80;75.30;;;;;;5042516;28;20502;-41
2023/12/27 08:45:20;;;;;;;141.48;69.38;;;16.80;75.20;;;;;;5037290;28;20060;-42
2023/12/27 08:47:46;;;;;;;164.65;86.50;;;16.80;75.50;;;;;;5038543;28;20520;-40
2023/12/27 08:50:12;;;;;;;152.27;77.80;;;16.80;75.40;;;;;;5041931;28;20041;-41
2023/12/27 08:52:39;;;;;;;149.68;73.57;;;16.80;75.20;;;;;;5040719;28;20491;-40
2023/12/27 08:55:10;;;;;;;144.90;72.03;;;16.90;75.20;;;;;;5036943;28;20104;-41
2023/12/27 08:57:36;;;;;;;147.18;72.68;;;16.90;75.00;;;;;;5027904;28;20313;-43
2023/12/27 09:00:03;;;;;;;143.75;71.00;;;17.00;75.00;;;;;;5036178;28;20045;-41
2023/12/27 09:02:28;;;;;;;143.05;69.60;;;17.00;75.00;;;;;;5039914;28;20041;-43
2023/12/27 09:04:54;;;;;;;144.18;69.35;;;17.00;75.40;;;;;;5039392;28;20060;-41
2023/12/27 09:07:20;;;;;;;142.05;68.80;;;17.00;75.50;;;;;;5038077;28;20144;-45
2023/12/27 09:09:45;;;;;;;150.23;72.57;;;17.00;75.50;;;;;;5036282;28;21114;-42
2023/12/27 09:12:11;;;;;;;146.02;70.63;;;17.00;75.40;;;;;;5034654;28;20033;-39
2023/12/27 09:14:39;;;;;;;143.70;69.68;;;17.10;75.60;;;;;;5036468;28;20092;-43
2023/12/27 09:17:05;;;;;;;143.38;68.07;;;17.10;75.70;;;;;;5028573;28;20050;-39
2023/12/27 09:19:31;;;;;;;139.07;67.18;;;17.10;75.60;;;;;;5032585;28;20112;-40
2023/12/27 09:21:57;;;;;;;144.73;66.80;;;17.10;75.60;;;;;;5036751;28;20853;-40
2023/12/27 09:24:22;;;;;;;142.00;68.50;;;17.10;75.80;;;;;;5038981;28;20041;-46
2023/12/27 09:26:48;;;;;;;139.85;67.63;;;17.20;76.00;;;;;;5034058;28;20129;-40
2023/12/27 09:29:15;;;;;;;141.15;66.45;;;17.20;76.00;;;;;;5037390;28;20046;-39
2023/12/27 09:31:41;;;;;;;143.23;66.10;;;17.20;76.00;;;;;;5037341;28;20033;-42
2023/12/27 09:34:07;;;;;;;137.95;65.35;;;17.20;76.10;;;;;;5037563;28;20056;-45
2023/12/27 09:36:33;;;;;;;139.82;66.00;;;17.30;76.20;;;;;;5035457;28;20053;-41
2023/12/27 09:38:59;;;;;;;139.52;64.65;;;17.30;76.20;;;;;;5033207;28;20099;-41
2023/12/27 09:41:24;;;;;;;139.23;64.50;;;17.30;76.20;;;;;;5039261;28;20044;-40
2023/12/27 09:43:55;;;;;;;141.07;67.93;;;17.30;76.10;;;;;;5040343;28;20045;-40
2023/12/27 09:46:24;;;;;;;144.35;71.47;;;17.20;76.30;;;;;;5031043;28;20503;-44
2023/12/27 09:48:51;;;;;;;141.52;69.03;;;17.20;76.30;;;;;;5035549;28;20073;-41
2023/12/27 09:51:23;;;;;;;142.43;68.43;;;17.20;76.50;;;;;;5033569;28;20223;-44
2023/12/27 09:53:52;;;;;;;139.15;65.82;;;17.20;76.70;;;;;;5031337;28;20042;-40
2023/12/27 09:56:22;;;;;;;138.02;65.20;;;17.20;76.80;;;;;;5034204;28;20102;-41
2023/12/27 09:58:58;;;;;;;140.38;64.78;;;17.30;76.60;;;;;;5035025;28;20033;-40
2023/12/27 10:01:24;;;;;;;139.85;64.78;;;17.40;76.60;;;;;;5034173;28;20034;-40
2023/12/27 10:03:54;;;;;;;139.23;65.78;;;17.40;76.30;;;;;;5037893;28;20079;-40
2023/12/27 10:06:43;;;;;;;135.27;63.65;;;17.40;76.00;;;;;;5034108;28;20212;-43
2023/12/27 10:09:10;;;;;;;137.02;63.33;;;17.50;76.00;;;;;;5038719;28;20531;-42
2023/12/27 10:11:40;;;;;;;138.20;63.80;;;17.50;75.80;;;;;;5031360;28;20066;-40
2023/12/27 10:14:07;;;;;;;137.70;62.50;;;17.50;75.80;;;;;;5034910;28;20056;-40
2023/12/27 10:16:32;;;;;;;137.35;62.90;;;17.60;75.60;;;;;;5039568;28;20531;-42
2023/12/27 10:19:00;;;;;;;140.95;62.85;;;17.60;75.60;;;;;;5036694;28;20037;-43
2023/12/27 10:21:25;;;;;;;136.70;62.65;;;17.60;75.60;;;;;;5039243;28;20524;-39
2023/12/27 10:23:52;;;;;;;138.32;61.78;;;17.60;75.30;;;;;;5041034;28;20053;-42
2023/12/27 10:26:19;;;;;;;138.43;62.03;;;17.60;75.20;;;;;;5037980;28;20038;-40
2023/12/27 10:28:46;;;;;;;136.60;61.67;;;17.60;75.00;;;;;;5039008;28;20041;-42
2023/12/27 10:31:11;;;;;;;136.65;61.85;;;17.70;75.00;;;;;;5037015;28;20072;-40
2023/12/27 10:33:44;;;;;;;139.60;61.33;;;17.70;75.00;;;;;;5039918;28;20046;-40
2023/12/27 10:36:10;;;;;;;133.88;61.00;;;17.70;75.00;;;;;;5038386;28;20038;-43
2023/12/27 10:38:37;;;;;;;134.02;60.97;;;17.70;74.90;;;;;;5037419;28;20030;-39
2023/12/27 10:41:05;;;;;;;133.23;61.58;;;17.70;74.90;;;;;;5049871;28;20162;-42
2023/12/27 10:43:34;;;;;;;138.68;61.75;;;17.70;74.90;;;;;;5038473;28;20049;-40
2023/12/27 10:46:06;;;;;;;136.25;61.15;;;17.70;74.90;;;;;;5039448;28;20044;-44
2023/12/27 10:48:33;;;;;;;135.15;60.65;;;17.70;74.90;;;;;;5031725;28;20502;-41
2023/12/27 10:50:59;;;;;;;139.88;63.25;;;17.70;74.90;;;;;;5028751;28;20072;-40
2023/12/27 10:53:27;;;;;;;174.63;90.57;;;17.60;74.90;;;;;;5034052;28;20778;-40
2023/12/27 10:55:53;;;;;;;166.65;82.20;;;17.60;75.10;;;;;;5034106;28;20128;-40
2023/12/27 10:58:24;;;;;;;157.88;76.95;;;17.60;75.20;;;;;;5033687;28;20034;-40
2023/12/27 11:00:50;;;;;;;156.05;75.60;;;17.60;75.50;;;;;;5032061;28;20457;-39
2023/12/27 11:03:18;;;;;;;153.30;72.38;;;17.60;75.80;;;;;;5036109;28;20053;-40
2023/12/27 11:05:45;;;;;;;153.82;69.70;;;17.70;75.10;;;;;;5029581;28;20064;-41
2023/12/27 11:08:13;;;;;;;149.10;69.45;;;17.80;74.80;;;;;;5037311;28;20119;-40
2023/12/27 11:10:40;;;;;;;147.30;68.38;;;17.90;74.50;;;;;;5036814;28;20125;-43
2023/12/27 11:13:12;;;;;;;143.07;66.78;;;17.90;74.20;;;;;;5037343;28;20042;-42
2023/12/27 11:15:44;;;;;;;144.18;66.57;;;18.00;74.20;;;;;;5038941;28;20057;-40
2023/12/27 11:18:11;;;;;;;146.10;66.78;;;18.00;74.00;;;;;;5036516;28;20542;-42
2023/12/27 11:20:39;;;;;;;145.27;65.82;;;18.00;73.80;;;;;;5032018;28;20037;-48
2023/12/27 11:23:05;;;;;;;143.65;66.22;;;18.00;73.80;;;;;;5030078;28;20053;-44
2023/12/27 11:25:31;;;;;;;143.95;65.68;;;18.00;73.70;;;;;;5021097;28;20152;-41
2023/12/27 11:27:59;;;;;;;142.23;65.40;;;18.10;73.80;;;;;;5037368;28;20705;-45
2023/12/27 11:30:28;;;;;;;139.80;64.63;;;18.00;73.40;;;;;;5038119;28;20045;-43
2023/12/27 11:32:54;;;;;;;141.73;65.72;;;18.00;73.60;;;;;;5035760;28;20034;-42
2023/12/27 11:35:24;;;;;;;142.68;64.88;;;18.00;73.70;;;;;;5036949;28;20457;-43
2023/12/27 11:37:52;;;;;;;139.88;64.28;;;18.10;74.00;;;;;;5036850;28;20052;-43
2023/12/27 11:40:44;;;;;;;146.95;68.45;;;18.00;73.50;;;;;;5032101;28;20581;-39
2023/12/27 11:43:15;;;;;;;146.38;68.28;;;18.10;73.70;;;;;;5033473;28;20057;-43
2023/12/27 11:46:01;;;;;;;145.93;69.03;;;18.20;74.00;;;;;;5039946;28;20922;-45
2023/12/27 11:48:27;;;;;;;143.10;67.60;;;18.30;73.30;;;;;;5040739;28;20072;-43
2023/12/27 11:50:57;;;;;;;144.90;67.65;;;18.30;73.40;;;;;;5040529;28;20046;-41
2023/12/27 11:53:29;;;;;;;146.25;67.68;;;18.30;73.30;;;;;;5043828;28;20152;-43
2023/12/27 11:56:02;;;;;;;142.90;66.22;;;18.40;73.40;;;;;;5042039;28;20049;-39
2023/12/27 11:58:40;;;;;;;143.52;66.13;;;18.40;73.20;;;;;;5037470;28;20566;-44
2023/12/27 12:01:28;;;;;;;146.50;66.25;;;18.40;73.10;;;;;;5037188;28;20037;-48
2023/12/27 12:04:09;;;;;;;143.77;65.53;;;18.40;72.40;;;;;;5037865;28;20065;-41
2023/12/27 12:06:53;;;;;;;141.20;65.78;;;18.40;72.20;;;;;;5039468;28;20084;-44
2023/12/27 12:09:37;;;;;;;141.32;65.53;;;18.40;72.50;;;;;;5039864;28;20056;-38
2023/12/27 12:12:10;;;;;;;141.52;64.32;;;18.50;72.80;;;;;;5038218;28;20026;-40
2023/12/27 12:14:37;;;;;;;138.93;64.35;;;18.50;72.30;;;;;;5033782;28;20061;-40
2023/12/27 12:17:03;;;;;;;141.15;64.22;;;18.60;72.60;;;;;;5039539;28;20041;-41